logo dgac
Viernes 12 de Abril del 2024
Buscar por aerodromo o helipuerto
Ingrese nombre de aeródromo, localidad o designador OACI:
TAF: TAF SCCH 121028Z 1212/1224 VRB02KT CAVOK TX20/1219Z TN08/1212Z TEMPO 1212/1214 35004KT 3000 BR BKN002
TAF del 12/04/2024 a las 10:28 UTC
Para mayor información visite www.meteochile.gob.cl
Período de validez: desde el 12 a las 12:00 UTC hasta el 12 a las 24:00 UTC
Viento: dirección variable, velocidad 2 nudos
Visibilidad: 10 km o más,
    sin nubes bajo los 5.000 pies o bajo del MSA (Mínimo de Seguridad del Aeródromo),
    sin cumulonimbus, y sin fenómenos de tiempo significativo en el aeródromo o alrededores
Temperatura máxima: 20ºC el 12 a las 19:00 UTC
Temperatura mínima: 8ºC el 12 a las 12:00 UTC
Se espera en forma temporal entre las 12:00 UTC del 12 y las 14:00 UTC del 12:
Viento: dirección 350 grados, velocidad 4 nudos
Visibilidad: 3000 metros
Neblina
Nubes: Nublado a 200 pies sobre el nivel del aeródromo